Airmont, New York
Current Conditions -  °F | °C
As of 8:51 PM on Thursday 18 Dec 2014 (Local Time) from KTEB Reporting Station
Clear Clear  
Wind Chill: 30°   Ceiling: Unl
Heat Index: 37°   Visibility: 10mi
Dew Point: 26°   Wind: 10mph
Humidity: 65%   Direction: 310°NW
Pressure: 29.96"   Gusts: NA
Location:  41.1112°N, 74.0777°W
Report Text: KTEB 190151Z 31009KT 10SM CLR 03/M03 A2996 RMK AO2 SLP145 T00281033
Loading
Personal Weather Stations






























Interactive Weather Map New forecast layout! Learn more

10-Day Weather Forecast

Advertisements
Track Severe Weather on mobile